Time;durP1;ratioP1;P1;durP2;ratioP2;P2;SDS_P1;SDS_P2;PMS_P1;PMS_P2;Temp;Humidity;BMP_temperature;BMP_pressure;BME280_temperature;BME280_humidity;BME280_pressure;Samples;Min_cycle;Max_cycle;Signal;HPM_P1;HPM_P2
2022/10/19 00:00:46;;;;;;;7.72;5.67;;;;;;;12.28;100.00;98782.24;1731213;82;21144;-82
2022/10/19 00:03:15;;;;;;;6.72;5.05;;;;;;;12.27;100.00;98786.05;1730891;82;20992;-82
2022/10/19 00:05:40;;;;;;;5.97;4.30;;;;;;;12.22;100.00;98784.16;1761416;81;20995;-81
2022/10/19 00:08:06;;;;;;;7.65;3.92;;;;;;;12.21;100.00;98781.15;1761308;81;20865;-78
2022/10/19 00:10:32;;;;;;;5.80;4.22;;;;;;;12.17;100.00;98779.27;1761688;81;22308;-82
2022/10/19 00:12:58;;;;;;;5.90;4.37;;;;;;;12.14;100.00;98784.16;1761339;81;21080;-78
2022/10/19 00:15:24;;;;;;;5.35;4.10;;;;;;;12.14;100.00;98786.88;1747400;81;21015;-78
2022/10/19 00:17:50;;;;;;;5.60;4.00;;;;;;;12.11;100.00;98791.48;1730963;82;20912;-81
2022/10/19 00:20:16;;;;;;;5.15;3.98;;;;;;;12.10;100.00;98792.56;1731355;82;20983;-82
2022/10/19 00:22:42;;;;;;;5.22;3.92;;;;;;;12.11;100.00;98794.73;1731121;82;21539;-78
2022/10/19 00:25:08;;;;;;;7.58;5.25;;;;;;;12.08;100.00;98785.78;1731385;82;21152;-78
2022/10/19 00:27:34;;;;;;;6.90;4.55;;;;;;;12.08;100.00;98789.86;1731133;82;21083;-78
2022/10/19 00:30:00;;;;;;;6.00;5.40;;;;;;;12.09;100.00;98781.98;1731423;82;21015;-82
2022/10/19 00:32:26;;;;;;;11.33;6.12;;;;;;;12.12;100.00;98784.95;1730741;82;20904;-78
2022/10/19 00:34:52;;;;;;;11.05;5.12;;;;;;;12.10;100.00;98780.88;1731014;82;21534;-78
2022/10/19 00:37:18;;;;;;;8.08;5.90;;;;;;;12.14;100.00;98786.06;1731002;82;21140;-82
2022/10/19 00:39:44;;;;;;;8.53;5.90;;;;;;;12.13;100.00;98785.77;1731243;82;20951;-78
2022/10/19 00:42:11;;;;;;;8.08;5.60;;;;;;;12.17;100.00;98788.77;1731178;81;20877;-79
2022/10/19 00:44:46;;;;;;;10.55;6.22;;;;;;;12.19;100.00;98785.23;1730876;82;21484;-78
2022/10/19 00:47:11;;;;;;;9.33;6.87;;;;;;;12.21;100.00;98791.20;1730951;82;21014;-82
2022/10/19 00:49:40;;;;;;;7.75;5.37;;;;;;;12.23;100.00;98788.52;1731280;82;21008;-78
2022/10/19 00:52:13;;;;;;;9.78;6.37;;;;;;;12.25;100.00;98784.97;1701933;82;21035;-82
2022/10/19 00:54:40;;;;;;;8.75;5.97;;;;;;;12.25;100.00;98774.10;1759101;81;21088;-78
2022/10/19 00:57:06;;;;;;;9.85;7.00;;;;;;;12.27;100.00;98775.19;1734737;81;21512;-78
2022/10/19 00:59:32;;;;;;;9.58;6.40;;;;;;;12.28;100.00;98773.55;1750664;81;21567;-82
2022/10/19 01:01:58;;;;;;;12.78;7.15;;;;;;;12.31;100.00;98777.64;1742696;81;21060;-78
2022/10/19 01:04:25;;;;;;;11.25;8.20;;;;;;;12.29;100.00;98765.66;1749738;82;21058;-82
2022/10/19 01:06:52;;;;;;;9.13;7.62;;;;;;;12.22;100.00;98776.02;1779976;80;21043;-81
2022/10/19 01:09:18;;;;;;;12.65;8.65;;;;;;;12.23;100.00;98770.03;1761000;81;21047;-78
2022/10/19 01:12:20;;;;;;;10.93;7.72;;;;;;;12.23;100.00;98772.20;1761342;81;21141;-82
2022/10/19 01:15:14;;;;;;;12.03;7.87;;;;;;;12.19;100.00;98778.44;1755342;81;21094;-78
2022/10/19 01:17:57;;;;;;;9.90;8.13;;;;;;;12.16;100.00;98772.20;1730700;82;21011;-79
2022/10/19 01:20:57;;;;;;;11.00;8.28;;;;;;;12.16;100.00;98773.56;1731051;82;21027;-82
2022/10/19 01:23:59;;;;;;;13.78;9.00;;;;;;;12.13;100.00;98766.75;1730757;82;21027;-82
2022/10/19 01:26:37;;;;;;;11.05;8.28;;;;;;;12.13;100.00;98761.31;1730375;82;21011;-78
2022/10/19 01:29:20;;;;;;;12.35;9.10;;;;;;;12.15;100.00;98753.73;1730919;82;21780;-78
2022/10/19 01:31:50;;;;;;;12.88;9.50;;;;;;;12.18;100.00;98757.80;1730872;82;21015;-82
2022/10/19 01:34:30;;;;;;;12.33;9.08;;;;;;;12.17;100.00;98754.27;1711885;82;21042;-82
2022/10/19 01:37:19;;;;;;;14.63;10.18;;;;;;;12.15;100.00;98752.38;1730785;82;21046;-78
2022/10/19 01:39:56;;;;;;;14.40;9.15;;;;;;;12.11;100.00;98753.44;1730782;82;20996;-78
2022/10/19 01:42:31;;;;;;;15.00;10.53;;;;;;;12.10;100.00;98755.08;1730786;82;21741;-82
2022/10/19 01:45:05;;;;;;;13.98;9.48;;;;;;;12.11;100.00;98752.08;1730749;82;21491;-78
2022/10/19 01:47:51;;;;;;;13.50;9.00;;;;;;;12.11;100.00;98748.55;1730949;82;21090;-82
2022/10/19 01:50:24;;;;;;;13.48;9.43;;;;;;;12.11;100.00;98741.77;1707152;82;21090;-82
2022/10/19 01:52:50;;;;;;;13.72;9.93;;;;;;;12.07;100.00;98728.47;1730739;82;21050;-82
2022/10/19 01:55:16;;;;;;;15.30;9.70;;;;;;;12.02;100.00;98735.25;1731005;82;21483;-82
2022/10/19 01:57:45;;;;;;;11.68;8.73;;;;;;;12.02;100.00;98731.17;1730669;82;21022;-82
2022/10/19 02:00:12;;;;;;;;;;;;;;;11.99;100.00;98727.11;1733450;82;21089;-78
2022/10/19 02:02:42;;;;;;;10.63;8.45;;;;;;;11.95;100.00;98725.19;1730871;82;20210;-78
2022/10/19 02:05:08;;;;;;;12.85;9.23;;;;;;;11.94;100.00;98733.88;1754318;81;21079;-82
2022/10/19 02:07:34;;;;;;;13.90;10.48;;;;;;;11.95;100.00;98731.98;1761113;81;21000;-78
2022/10/19 02:10:00;;;;;;;15.85;10.35;;;;;;;11.96;100.00;98723.55;1707084;81;21071;-79
2022/10/19 02:12:27;;;;;;;13.13;9.58;;;;;;;12.00;100.00;98723.84;1761227;81;21003;-82
2022/10/19 02:14:55;;;;;;;15.18;10.72;;;;;;;11.97;100.00;98725.21;1753710;81;21027;-78
2022/10/19 02:17:25;;;;;;;15.00;10.18;;;;;;;11.94;100.00;98734.43;1731053;82;21225;-78
2022/10/19 02:19:52;;;;;;;12.35;8.68;;;;;;;11.94;100.00;98737.14;1731007;82;21315;-81
2022/10/19 02:22:18;;;;;;;16.52;11.30;;;;;;;11.94;100.00;98733.88;1730986;82;21015;-78
2022/10/19 02:24:44;;;;;;;15.63;10.10;;;;;;;11.96;100.00;98739.03;1731161;82;20881;-78
2022/10/19 02:27:10;;;;;;;13.38;10.58;;;;;;;11.95;100.00;98735.51;1730868;82;20900;-82
2022/10/19 02:29:36;;;;;;;12.75;9.75;;;;;;;11.94;100.00;98732.52;1731097;82;21015;-82
2022/10/19 02:32:02;;;;;;;13.10;9.90;;;;;;;11.96;100.00;98730.89;1731128;82;21704;-78
2022/10/19 02:34:29;;;;;;;14.03;10.45;;;;;;;11.93;100.00;98733.61;1730689;82;21019;-82
2022/10/19 02:36:54;;;;;;;13.65;9.58;;;;;;;11.94;100.00;98724.92;1731025;82;21022;-82
2022/10/19 02:39:20;;;;;;;14.73;11.12;;;;;;;11.93;100.00;98724.66;1730709;82;20935;-78
2022/10/19 02:42:10;;;;;;;15.38;11.43;;;;;;;11.95;100.00;98731.98;1730922;82;36738;-82
2022/10/19 02:44:46;;;;;;;14.63;10.10;;;;;;;11.94;100.00;98727.09;1730857;82;21387;-82
2022/10/19 02:47:18;;;;;;;13.85;10.30;;;;;;;11.95;100.00;98730.08;1730933;82;21448;-78
2022/10/19 02:49:44;;;;;;;13.93;9.10;;;;;;;11.98;100.00;98731.45;1731136;82;21546;-78
2022/10/19 02:52:11;;;;;;;18.55;9.65;;;;;;;12.00;100.00;98730.63;1730958;82;20896;-78
2022/10/19 02:54:38;;;;;;;18.27;9.55;;;;;;;12.02;100.00;98733.89;1730819;82;21562;-78
2022/10/19 02:57:08;;;;;;;14.60;9.50;;;;;;;12.00;100.00;98719.23;1731094;82;21119;-78
2022/10/19 02:59:34;;;;;;;13.53;8.95;;;;;;;12.01;100.00;98714.06;1729534;82;21043;-81
2022/10/19 03:02:00;;;;;;;13.03;9.23;;;;;;;11.95;100.00;98701.56;1731183;82;20916;-78
2022/10/19 03:04:26;;;;;;;17.90;9.88;;;;;;;11.93;100.00;98701.02;1745094;81;20967;-82
2022/10/19 03:06:51;;;;;;;17.37;11.55;;;;;;;11.91;100.00;98707.28;1761214;81;21681;-78
2022/10/19 03:09:17;;;;;;;18.23;11.43;;;;;;;11.90;100.00;98704.30;1760937;81;21166;-82
2022/10/19 03:11:43;;;;;;;24.80;13.88;;;;;;;11.86;100.00;98701.83;1761305;81;20888;-78
2022/10/19 03:14:09;;;;;;;21.07;12.20;;;;;;;11.84;100.00;98707.55;1760797;81;20967;-82
2022/10/19 03:16:35;;;;;;;16.30;12.43;;;;;;;11.84;100.00;98703.47;1732484;81;20947;-82
2022/10/19 03:19:01;;;;;;;16.57;10.68;;;;;;;11.84;100.00;98699.94;1730854;82;20982;-81
2022/10/19 03:21:27;;;;;;;16.95;11.30;;;;;;;11.84;100.00;98702.66;1731056;82;21291;-82
2022/10/19 03:23:53;;;;;;;15.18;11.05;;;;;;;11.85;100.00;98709.71;1730872;82;20864;-82
2022/10/19 03:26:19;;;;;;;15.08;10.48;;;;;;;11.84;100.00;98709.45;1731077;82;21547;-78
2022/10/19 03:28:45;;;;;;;22.75;11.95;;;;;;;11.85;100.00;98705.64;1730790;82;20959;-81
2022/10/19 03:31:11;;;;;;;18.70;11.55;;;;;;;11.86;100.00;98712.70;1731273;82;20998;-81
2022/10/19 03:33:36;;;;;;;16.45;10.90;;;;;;;11.87;100.00;98712.97;1730853;82;21562;-78
2022/10/19 03:36:22;;;;;;;14.33;10.78;;;;;;;11.88;100.00;98719.20;1731091;82;20912;-82
2022/10/19 03:38:54;;;;;;;14.03;9.98;;;;;;;11.90;100.00;98717.06;1731214;82;20987;-82
2022/10/19 03:41:21;;;;;;;14.07;10.10;;;;;;;11.91;100.00;98719.50;1729168;82;21475;-82
2022/10/19 03:43:47;;;;;;;16.87;11.40;;;;;;;11.88;100.00;98719.20;1730787;82;21050;-78
2022/10/19 03:46:13;;;;;;;14.13;10.60;;;;;;;11.86;100.00;98714.87;1731204;82;21097;-78
2022/10/19 03:48:39;;;;;;;14.38;11.70;;;;;;;11.88;100.00;98713.78;1730716;82;21023;-78
2022/10/19 03:51:11;;;;;;;15.80;10.95;;;;;;;11.89;100.00;98705.38;1731155;82;21042;-82
2022/10/19 03:53:37;;;;;;;13.43;9.75;;;;;;;11.90;100.00;98706.20;1730932;82;21030;-78
2022/10/19 03:56:04;;;;;;;17.57;10.48;;;;;;;11.90;100.00;98704.84;1731220;82;20908;-82
2022/10/19 03:58:33;;;;;;;13.05;8.38;;;;;;;11.88;100.00;98704.27;1730909;82;21030;-78
2022/10/19 04:00:59;;;;;;;13.50;10.28;;;;;;;11.84;100.00;98701.30;1731122;82;21024;-81
2022/10/19 04:03:25;;;;;;;13.98;9.45;;;;;;;11.79;100.00;98696.66;1732644;81;21035;-77
2022/10/19 04:05:51;;;;;;;14.53;9.88;;;;;;;11.80;100.00;98693.44;1761058;81;21562;-82
2022/10/19 04:08:17;;;;;;;16.65;10.43;;;;;;;11.80;100.00;98699.68;1761301;81;21042;-78
2022/10/19 04:10:43;;;;;;;13.38;9.43;;;;;;;11.83;100.00;98697.77;1761264;81;21856;-78
2022/10/19 04:13:09;;;;;;;53.60;40.08;;;;;;;11.83;100.00;98693.70;1760977;81;21042;-81
2022/10/19 04:15:35;;;;;;;24.67;17.00;;;;;;;11.83;100.00;98692.34;1745209;81;20947;-81
2022/10/19 04:18:01;;;;;;;17.57;11.90;;;;;;;11.77;100.00;98696.64;1731323;82;21090;-77
2022/10/19 04:20:27;;;;;;;14.18;9.33;;;;;;;11.72;100.00;98696.66;1731140;82;21642;-82
2022/10/19 04:22:53;;;;;;;16.30;8.93;;;;;;;11.67;100.00;98692.56;1731141;82;20903;-77
2022/10/19 04:25:19;;;;;;;14.50;9.35;;;;;;;11.69;100.00;98693.11;1731112;82;20975;-81
2022/10/19 04:27:45;;;;;;;15.28;10.43;;;;;;;11.70;100.00;98692.02;1730881;81;21011;-77
2022/10/19 04:30:11;;;;;;;15.78;11.33;;;;;;;11.69;100.00;98693.11;1731139;82;21337;-82
2022/10/19 04:32:37;;;;;;;15.83;12.18;;;;;;;11.66;100.00;98695.83;1731129;82;21006;-82
2022/10/19 04:35:04;;;;;;;15.00;12.23;;;;;;;11.67;100.00;98693.38;1730729;82;21065;-81
2022/10/19 04:37:30;;;;;;;15.90;11.05;;;;;;;11.66;100.00;98695.02;1730987;82;21550;-82
2022/10/19 04:39:55;;;;;;;14.75;11.08;;;;;;;11.64;100.00;98688.50;1730743;82;20860;-81
2022/10/19 04:42:21;;;;;;;18.48;10.95;;;;;;;11.64;100.00;98689.86;1731048;82;20911;-77
2022/10/19 04:44:47;;;;;;;15.85;12.20;;;;;;;11.63;100.00;98686.88;1730882;82;20983;-78
2022/10/19 04:47:13;;;;;;;18.95;11.88;;;;;;;11.62;100.00;98696.08;1730958;82;21156;-78
2022/10/19 04:49:39;;;;;;;17.67;12.30;;;;;;;11.62;100.00;98696.63;1730847;82;20998;-82
2022/10/19 04:52:05;;;;;;;19.23;12.93;;;;;;;11.62;100.00;98697.44;1737123;81;21156;-82
2022/10/19 04:54:31;;;;;;;19.00;12.70;;;;;;;11.63;100.00;98692.85;1755645;81;21011;-81
2022/10/19 04:56:57;;;;;;;21.05;13.15;;;;;;;11.65;100.00;98692.84;1756778;81;21437;-77
2022/10/19 04:59:23;;;;;;;20.35;12.35;;;;;;;11.66;100.00;98695.02;1751448;81;21325;-77
2022/10/19 05:01:49;;;;;;;20.02;12.88;;;;;;;11.66;100.00;98697.19;1745276;81;21620;-78
2022/10/19 05:04:15;;;;;;;19.73;13.22;;;;;;;11.66;100.00;98699.09;1743036;81;21087;-82
2022/10/19 05:06:41;;;;;;;20.85;13.10;;;;;;;11.66;100.00;98701.80;1761105;81;21055;-78
2022/10/19 05:09:07;;;;;;;20.37;12.45;;;;;;;11.67;100.00;98698.00;1756554;81;20881;-81
2022/10/19 05:11:33;;;;;;;16.10;12.10;;;;;;;11.65;100.00;98696.91;1784573;80;21326;-82
2022/10/19 05:13:59;;;;;;;15.25;11.12;;;;;;;11.65;100.00;98696.91;1792442;80;21061;-78
2022/10/19 05:16:25;;;;;;;15.72;11.40;;;;;;;11.63;100.00;98695.02;1747600;80;20928;-78
2022/10/19 05:18:58;;;;;;;18.65;10.63;;;;;;;11.64;100.00;98693.93;1761221;81;20829;-82
2022/10/19 05:21:21;;;;;;;14.25;10.23;;;;;;;11.64;100.00;98695.83;1759199;81;21448;-80
2022/10/19 05:23:52;;;;;;;15.68;9.63;;;;;;;11.61;100.00;98693.09;1757654;81;21127;-81
2022/10/19 05:26:20;;;;;;;19.37;10.55;;;;;;;11.60;100.00;98694.19;1737092;81;20992;-81
2022/10/19 05:28:55;;;;;;;14.63;10.78;;;;;;;11.60;100.00;98696.90;1730871;82;21060;-82
2022/10/19 05:31:19;;;;;;;19.25;10.68;;;;;;;11.58;100.00;98702.60;1753890;81;21475;-82
2022/10/19 05:33:45;;;;;;;15.90;10.60;;;;;;;11.55;100.00;98695.01;1759855;81;21056;-78
2022/10/19 05:36:33;;;;;;;14.60;10.93;;;;;;;11.54;100.00;98696.09;1757183;81;22152;-82
2022/10/19 05:39:05;;;;;;;17.67;11.18;;;;;;;11.51;100.00;98696.62;1761196;81;21054;-82
2022/10/19 05:41:31;;;;;;;18.62;11.22;;;;;;;11.48;100.00;98699.06;1727931;81;21451;-78
2022/10/19 05:43:59;;;;;;;18.67;12.60;;;;;;;11.46;100.00;98705.31;1741729;81;20892;-82
2022/10/19 05:46:26;;;;;;;21.10;12.00;;;;;;;11.49;100.00;98703.41;1740409;81;21044;-82
2022/10/19 05:48:53;;;;;;;19.92;11.70;;;;;;;11.48;100.00;98710.73;1741010;79;21780;-81
2022/10/19 05:51:20;;;;;;;22.15;12.47;;;;;;;11.46;100.00;98710.73;1735645;81;21050;-82
2022/10/19 05:53:46;;;;;;;15.75;11.22;;;;;;;11.46;100.00;98702.59;1746632;80;21117;-78
2022/10/19 05:56:14;;;;;;;17.80;12.07;;;;;;;11.47;100.00;98702.86;1774478;80;20951;-78
2022/10/19 05:58:40;;;;;;;23.60;11.68;;;;;;;11.43;100.00;98699.05;1742882;81;21475;-81
2022/10/19 06:01:08;;;;;;;19.95;12.50;;;;;;;11.47;100.00;98711.01;1740789;80;20991;-82
2022/10/19 06:03:34;;;;;;;17.48;11.40;;;;;;;11.43;100.00;98716.14;1749273;81;21051;-82
2022/10/19 06:06:04;;;;;;;18.77;12.05;;;;;;;11.41;100.00;98710.17;1741997;81;21133;-77
2022/10/19 06:08:30;;;;;;;17.82;11.35;;;;;;;11.49;100.00;98709.64;1758757;81;21462;-82
2022/10/19 06:11:08;;;;;;;20.45;14.30;;;;;;;11.55;100.00;98712.65;1758579;80;21063;-78
2022/10/19 06:13:35;;;;;;;19.80;12.40;;;;;;;11.55;100.00;98705.05;1711270;81;21374;-82
2022/10/19 06:16:01;;;;;;;20.82;12.82;;;;;;;11.55;100.00;98712.65;1739748;81;21122;-78
2022/10/19 06:18:27;;;;;;;13.58;11.18;;;;;;;11.53;100.00;98713.98;1732455;81;21576;-78
2022/10/19 06:20:53;;;;;;;16.45;11.63;;;;;;;11.57;100.00;98719.16;1745945;81;20915;-82
2022/10/19 06:23:19;;;;;;;14.10;10.40;;;;;;;11.60;100.00;98725.40;1748581;81;20881;-81
2022/10/19 06:25:44;;;;;;;17.00;11.70;;;;;;;11.57;100.00;98729.47;1743946;81;21191;-78
2022/10/19 06:28:10;;;;;;;26.05;11.28;;;;;;;11.57;100.00;98732.19;1746337;81;20904;-81
2022/10/19 06:30:40;;;;;;;18.52;11.28;;;;;;;11.65;100.00;98734.92;1741735;81;20932;-78
2022/10/19 06:33:06;;;;;;;18.23;10.63;;;;;;;11.76;100.00;98737.09;1754306;81;21186;-78
2022/10/19 06:35:32;;;;;;;15.83;11.73;;;;;;;11.83;100.00;98739.05;1752331;80;21130;-78
2022/10/19 06:37:58;;;;;;;17.87;11.22;;;;;;;11.89;100.00;98742.59;1765328;80;21106;-78
2022/10/19 06:40:24;;;;;;;19.07;11.43;;;;;;;11.84;100.00;98742.03;1739257;80;20876;-82
2022/10/19 06:42:50;;;;;;;18.75;11.22;;;;;;;11.93;100.00;98744.48;1739631;80;20959;-81
2022/10/19 06:45:16;;;;;;;18.70;11.50;;;;;;;11.99;100.00;98751.55;1747358;80;20885;-81
2022/10/19 06:47:42;;;;;;;16.70;10.68;;;;;;;11.97;100.00;98755.09;1747570;81;21476;-81
2022/10/19 06:50:09;;;;;;;18.62;10.25;;;;;;;11.94;100.00;98765.66;1738879;81;21261;-78
2022/10/19 06:52:35;;;;;;;13.43;9.93;;;;;;;11.95;100.00;98768.10;1738264;81;21107;-78
2022/10/19 06:55:01;;;;;;;12.45;8.63;;;;;;;11.96;100.00;98767.02;1738686;81;21031;-82
2022/10/19 06:57:27;;;;;;;14.07;9.33;;;;;;;11.84;100.00;98771.90;1742435;80;21070;-78
2022/10/19 06:59:54;;;;;;;19.67;9.25;;;;;;;11.77;100.00;98773.48;1750163;81;20983;-82
2022/10/19 07:02:20;;;;;;;12.35;9.15;;;;;;;11.69;100.00;98775.36;1755722;80;21315;-82
2022/10/19 07:04:46;;;;;;;11.60;7.83;;;;;;;12.12;100.00;98780.06;1741255;81;21473;-81
2022/10/19 07:07:12;;;;;;;19.02;8.80;;;;;;;12.17;100.00;98781.98;1740787;81;20912;-81
2022/10/19 07:09:38;;;;;;;16.67;8.73;;;;;;;12.30;100.00;98787.67;1743237;80;20849;-78
2022/10/19 07:12:04;;;;;;;13.15;7.62;;;;;;;13.38;100.00;98776.84;1749259;80;21476;-78
2022/10/19 07:14:30;;;;;;;11.22;7.05;;;;;;;13.92;100.00;98775.98;1756664;80;21127;-82
2022/10/19 07:16:56;;;;;;;14.13;7.35;;;;;;;13.93;100.00;98777.63;1759539;80;21134;-82
2022/10/19 07:19:24;;;;;;;11.57;6.75;;;;;;;13.89;100.00;98775.74;1749602;80;21087;-78
2022/10/19 07:21:51;;;;;;;7.53;5.92;;;;;;;13.79;100.00;98781.52;1746028;81;21076;-82
2022/10/19 07:24:17;;;;;;;9.25;6.20;;;;;;;13.68;100.00;98779.16;1756361;80;21020;-82
2022/10/19 07:26:43;;;;;;;12.53;6.00;;;;;;;13.53;100.00;98775.96;1753575;80;21164;-82
2022/10/19 07:29:09;;;;;;;14.15;6.65;;;;;;;13.51;100.00;98771.35;1750403;81;21080;-78
2022/10/19 07:31:35;;;;;;;17.00;6.37;;;;;;;13.33;100.00;98774.16;1744795;81;20896;-81
2022/10/19 07:34:02;;;;;;;10.15;5.35;;;;;;;13.31;100.00;98774.16;1739211;80;20919;-78
2022/10/19 07:36:31;;;;;;;7.47;4.90;;;;;;;13.32;100.00;98768.42;1760150;80;21042;-82
2022/10/19 07:38:56;;;;;;;14.47;4.58;;;;;;;13.26;100.00;98764.13;1743970;80;21222;-82
2022/10/19 07:41:24;;;;;;;8.35;4.37;;;;;;;13.24;99.23;98769.00;1745097;80;20921;-78
2022/10/19 07:43:50;;;;;;;17.00;4.58;;;;;;;13.10;98.71;98763.33;1741596;80;21021;-78
2022/10/19 07:46:24;;;;;;;6.58;3.90;;;;;;;12.97;98.95;98773.43;1743779;80;21590;-81
2022/10/19 07:48:50;;;;;;;18.82;7.50;;;;;;;12.91;98.56;98780.00;1755172;81;21149;-79
2022/10/19 07:51:17;;;;;;;21.35;6.40;;;;;;;12.78;98.86;98775.94;1745894;81;21072;-78
2022/10/19 07:53:43;;;;;;;23.62;8.58;;;;;;;12.69;99.07;98772.15;1760882;80;21067;-78
2022/10/19 07:56:11;;;;;;;21.05;6.15;;;;;;;12.67;99.20;98777.87;1717957;81;20889;-82
2022/10/19 07:58:37;;;;;;;;;;;;;;;12.67;97.93;98768.90;1758398;80;21020;-83
2022/10/19 08:01:11;;;;;;;19.48;7.87;;;;;;;12.64;98.28;98783.02;1747270;80;20264;-82
2022/10/19 08:03:37;;;;;;;22.58;7.58;;;;;;;12.65;99.02;98779.23;1711348;81;21152;-81
2022/10/19 08:06:05;;;;;;;11.30;4.72;;;;;;;12.67;98.50;98778.41;1754408;80;21043;-82
2022/10/19 08:08:31;;;;;;;9.48;4.42;;;;;;;12.54;92.63;98796.09;1750181;80;21091;-81
2022/10/19 08:10:57;;;;;;;11.95;5.45;;;;;;;12.53;94.68;98795.01;1752097;80;20838;-81
2022/10/19 08:13:23;;;;;;;12.37;5.22;;;;;;;12.49;94.08;98792.58;1763638;80;20971;-78
2022/10/19 08:15:49;;;;;;;8.45;4.67;;;;;;;12.42;94.65;98794.20;1754453;80;21125;-78
2022/10/19 08:18:17;;;;;;;8.43;4.37;;;;;;;12.46;95.47;98795.82;1741019;81;20931;-78
2022/10/19 08:20:43;;;;;;;10.48;5.08;;;;;;;12.38;94.14;98795.28;1758019;80;21508;-78
2022/10/19 08:23:09;;;;;;;23.45;12.47;;;;;;;12.45;95.62;98788.77;1747806;81;21008;-78
2022/10/19 08:25:36;;;;;;;9.90;5.45;;;;;;;12.51;95.78;98786.32;1741526;81;21043;-78
2022/10/19 08:28:02;;;;;;;10.03;6.55;;;;;;;12.52;96.10;98785.23;1751452;80;21594;-78
2022/10/19 08:30:28;;;;;;;11.70;5.55;;;;;;;12.53;96.06;98784.13;1742050;81;21475;-78
2022/10/19 08:32:54;;;;;;;8.90;4.80;;;;;;;12.55;95.78;98775.16;1745642;81;20896;-82
2022/10/19 08:35:20;;;;;;;9.53;4.90;;;;;;;12.61;95.26;98778.95;1750433;80;20939;-82
2022/10/19 08:37:46;;;;;;;8.58;5.28;;;;;;;12.78;94.97;98779.20;1746822;80;20956;-79
2022/10/19 08:40:22;;;;;;;11.65;5.53;;;;;;;13.08;95.45;98778.31;1765319;80;21147;-82
2022/10/19 08:42:52;;;;;;;17.00;5.95;;;;;;;13.20;93.50;98771.48;1742307;80;21051;-79
2022/10/19 08:45:41;;;;;;;10.43;5.78;;;;;;;13.29;93.11;98772.27;1742936;81;21089;-78
2022/10/19 08:48:24;;;;;;;13.48;5.92;;;;;;;13.34;93.03;98781.23;1739345;80;21165;-79
2022/10/19 08:50:50;;;;;;;10.55;5.60;;;;;;;13.41;92.08;98783.08;1742143;80;21435;-82
2022/10/19 08:53:20;;;;;;;12.40;6.60;;;;;;;13.43;91.40;98781.47;1747392;81;21094;-82
2022/10/19 08:56:19;;;;;;;13.90;7.15;;;;;;;13.56;91.97;98784.92;1743270;80;21145;-82
2022/10/19 08:59:19;;;;;;;14.73;7.75;;;;;;;13.59;88.95;98793.06;1732587;80;21004;-78
2022/10/19 09:01:51;;;;;;;11.78;6.72;;;;;;;13.48;88.76;98788.23;1755072;80;21042;-78
2022/10/19 09:04:36;;;;;;;16.85;8.65;;;;;;;13.59;89.88;98787.10;1754512;80;21142;-82
2022/10/19 09:07:27;;;;;;;14.53;6.85;;;;;;;13.60;90.41;98787.37;1738902;80;22309;-78
2022/10/19 09:10:03;;;;;;;9.08;6.53;;;;;;;13.26;87.84;98792.15;1715696;80;21032;-82
2022/10/19 09:12:59;;;;;;;14.85;7.28;;;;;;;13.01;89.05;98799.00;1747291;81;21021;-78
2022/10/19 09:15:35;;;;;;;15.40;6.87;;;;;;;12.92;88.75;98791.14;1752301;80;21063;-81
2022/10/19 09:18:02;;;;;;;14.70;5.95;;;;;;;12.71;86.45;98795.25;1761714;80;21043;-82
2022/10/19 09:20:40;;;;;;;10.65;5.92;;;;;;;12.77;88.42;98788.45;1733693;81;21087;-81
2022/10/19 09:23:18;;;;;;;14.50;5.50;;;;;;;12.83;89.02;98787.36;1746603;81;21115;-82
2022/10/19 09:25:44;;;;;;;8.73;5.70;;;;;;;12.86;89.10;98781.36;1743752;79;21420;-82
2022/10/19 09:28:18;;;;;;;16.20;7.08;;;;;;;12.90;88.65;98773.74;1745351;80;20866;-78
2022/10/19 09:30:44;;;;;;;9.48;6.70;;;;;;;12.92;88.72;98779.72;1743674;80;21032;-79
2022/10/19 09:33:21;;;;;;;16.00;6.25;;;;;;;12.88;89.10;98780.53;1744103;80;21118;-82
2022/10/19 09:35:47;;;;;;;11.78;6.30;;;;;;;12.85;88.85;98769.66;1745280;80;21034;-78
2022/10/19 09:38:15;;;;;;;9.73;6.45;;;;;;;12.86;89.01;98777.28;1755013;80;20912;-78
2022/10/19 09:40:41;;;;;;;11.18;6.33;;;;;;;12.85;88.93;98781.91;1749441;80;21016;-78
2022/10/19 09:43:20;;;;;;;14.10;7.75;;;;;;;12.83;88.48;98784.64;1744611;80;20900;-78
2022/10/19 09:45:57;;;;;;;;;;;;;;;12.77;88.57;98789.81;1750536;80;21075;-78
2022/10/19 09:48:31;;;;;;;18.90;8.60;;;;;;;12.75;88.59;98793.36;1772679;80;20943;-78
2022/10/19 09:51:01;;;;;;;15.43;10.03;;;;;;;12.69;84.67;98792.00;1747252;79;21064;-78
2022/10/19 09:53:27;;;;;;;15.48;11.10;;;;;;;12.89;86.57;98792.48;1749843;79;20954;-78
2022/10/19 09:56:07;;;;;;;8.50;6.40;;;;;;;13.01;85.99;98795.47;1753361;79;20991;-78
2022/10/19 09:58:33;;;;;;;12.07;9.63;;;;;;;13.00;82.98;98802.82;1718219;81;21149;-78
2022/10/19 10:00:59;;;;;;;14.40;6.95;;;;;;;13.29;84.24;98786.69;1751882;79;21039;-81
2022/10/19 10:03:32;;;;;;;10.88;6.95;;;;;;;13.40;84.18;98784.17;1699298;79;21091;-79
2022/10/19 10:06:08;;;;;;;9.85;6.12;;;;;;;13.54;82.95;98795.28;1750679;79;20976;-79
2022/10/19 10:08:56;;;;;;;19.32;6.62;;;;;;;13.68;81.79;98787.33;1751361;81;21022;-82
2022/10/19 10:11:30;;;;;;;9.35;6.25;;;;;;;13.68;83.13;98785.97;1744599;80;21887;-79
2022/10/19 10:13:56;;;;;;;14.55;6.78;;;;;;;13.63;82.84;98783.26;1742299;81;21141;-79
2022/10/19 10:16:25;;;;;;;16.73;7.15;;;;;;;13.44;81.14;98783.09;1747345;81;21046;-81
2022/10/19 10:18:57;;;;;;;;;;;;;;;13.42;82.54;98788.81;1744483;81;21456;-79
2022/10/19 10:21:27;;;;;;;10.03;4.28;;;;;;;13.30;79.84;98782.87;1712825;80;20636;-82
2022/10/19 10:24:07;;;;;;;10.28;3.67;;;;;;;13.26;77.64;98792.15;1740496;80;21049;-81
2022/10/19 10:26:41;;;;;;;7.00;3.40;;;;;;;13.37;78.53;98788.83;1737528;81;21121;-82
2022/10/19 10:29:34;;;;;;;6.60;3.33;;;;;;;13.51;78.26;98790.41;1740621;81;21098;-82
2022/10/19 10:32:18;;;;;;;8.75;4.58;;;;;;;13.61;78.29;98783.55;1748400;81;21016;-78
2022/10/19 10:35:02;;;;;;;7.37;3.60;;;;;;;13.68;73.21;98794.14;1744653;80;21151;-82
2022/10/19 10:37:38;;;;;;;4.85;2.70;;;;;;;13.88;77.31;98783.11;1743224;80;21177;-82
2022/10/19 10:40:07;;;;;;;5.55;3.25;;;;;;;14.04;76.98;98776.45;1744352;81;21071;-82
2022/10/19 10:42:35;;;;;;;;;;;;;;;14.07;76.74;98776.42;1779707;80;21005;-81
2022/10/19 10:45:01;;;;;;;7.95;3.45;;;;;;;13.93;75.91;98780.87;1752627;80;20246;-81
2022/10/19 10:47:27;;;;;;;13.72;6.37;;;;;;;13.52;75.46;98781.14;1756393;80;20894;-81
2022/10/19 10:49:59;;;;;;;15.95;6.78;;;;;;;13.38;76.43;98776.84;1740041;80;22184;-78
2022/10/19 10:52:25;;;;;;;16.57;8.08;;;;;;;13.17;77.20;98773.92;1760544;79;20948;-81
2022/10/19 10:55:03;;;;;;;7.53;3.25;;;;;;;12.89;76.82;98779.44;1793263;79;21088;-78
2022/10/19 10:57:33;;;;;;;9.53;3.45;;;;;;;12.57;76.68;98787.41;1729232;79;21500;-78
2022/10/19 11:00:11;;;;;;;8.85;3.35;;;;;;;12.29;77.79;98799.63;1782880;79;20985;-81
2022/10/19 11:02:57;;;;;;;5.37;2.58;;;;;;;12.21;78.29;98798.81;1757006;80;21102;-78
2022/10/19 11:05:38;;;;;;;4.65;2.12;;;;;;;12.02;77.79;98801.25;1753653;81;21078;-81
2022/10/19 11:08:12;;;;;;;4.00;2.27;;;;;;;11.74;76.07;98803.08;1762474;81;21050;-81
2022/10/19 11:10:56;;;;;;;8.43;3.00;;;;;;;11.76;78.28;98801.72;1762891;79;21401;-81
2022/10/19 11:13:36;;;;;;;6.33;2.55;;;;;;;11.81;76.77;98798.24;1752558;81;21085;-78
2022/10/19 11:16:12;;;;;;;6.15;2.52;;;;;;;11.85;78.17;98796.61;1747116;79;21833;-78
2022/10/19 11:18:58;;;;;;;17.25;12.47;;;;;;;11.93;78.74;98796.08;1754312;79;21016;-78
2022/10/19 11:21:41;;;;;;;12.25;5.25;;;;;;;11.99;79.27;98797.72;1765349;79;21093;-78
2022/10/19 11:24:43;;;;;;;11.38;5.78;;;;;;;11.97;79.22;98791.75;1742069;79;21044;-78
2022/10/19 11:27:53;;;;;;;10.58;5.35;;;;;;;11.95;79.03;98794.45;1745706;79;21016;-78
2022/10/19 11:30:23;;;;;;;12.23;7.65;;;;;;;11.92;79.52;98789.56;1752731;79;21111;-78
2022/10/19 11:33:32;;;;;;;6.70;2.05;;;;;;;11.89;79.73;98790.11;1738743;81;21325;-81